Date,TemperatureHighF,TemperatureAvgF,TemperatureLowF,DewpointHighF,DewpointAvgF,DewpointLowF,HumidityHigh,HumidityAvg,HumidityLow,PressureMaxIn,PressureMinIn,WindSpeedMaxMPH,WindSpeedAvgMPH,GustSpeedMaxMPH,PrecipitationSumIn
2012-1-1,49.8,40.3,29.8,45.0,33.8,19.3,87,78,64,28.91,28.50,15,2,15,0.08
2012-1-2,30.7,28.1,25.3,26.5,21.8,14.1,87,78,54,28.91,28.76,10,2,10,0.00
2012-1-3,25.3,25.3,25.3,19.8,19.8,19.8,79,79,79,29.14,28.91,3,2,3,0.00
2012-1-4,25.3,25.3,25.3,19.8,19.8,19.8,79,79,79,29.06,28.79,3,2,3,0.00
2012-1-5,45.7,31.8,25.3,26.5,18.9,10.2,80,62,29,28.91,28.70,9,1,9,0.04
2012-1-6,56.8,46.3,38.1,25.8,19.6,15.5,51,35,22,28.73,28.64,9,2,9,0.13
2012-1-7,55.8,43.2,35.8,28.6,19.5,8.3,64,40,20,29.03,28.61,9,0,9,0.00
2012-1-8,48.7,34.7,28.8,29.2,17.7,6.8,84,52,21,29.20,29.03,6,0,8,0.00
2012-1-9,30.9,28.4,28.2,24.9,24.6,21.8,87,85,71,29.17,28.85,0,0,0,0.00
2012-1-10,28.2,28.2,28.2,24.9,24.9,24.9,87,87,87,28.94,28.82,7,0,7,0.00
2012-1-11,28.2,28.2,28.2,24.9,24.9,24.9,87,87,87,28.85,28.38,6,0,6,0.12
2012-1-12,28.2,28.2,28.2,24.9,24.9,24.9,87,87,87,28.38,28.38,0,0,2,0.00
2012-1-13,28.2,28.2,28.2,24.9,24.9,24.9,87,87,87,28.44,28.38,0,0,0,0.00
2012-1-14,21.9,19.7,19.2,12.5,10.3,8.2,74,66,55,29.06,29.00,0,0,0,0.00
2012-1-15,30.6,18.4,5.0,18.5,10.0,1.0,87,71,32,29.29,29.06,0,0,0,0.00
2012-1-16,44.8,33.1,19.2,40.5,19.0,6.7,87,59,30,29.20,28.76,14,1,14,0.21
2012-1-17,57.9,47.4,31.8,49.2,39.0,20.6,85,73,49,28.85,28.38,13,3,13,0.50
2012-1-18,32.2,23.5,14.2,28.2,10.4,-0.9,86,59,32,29.09,28.85,8,1,8,0.00
2012-1-19,30.9,22.9,14.9,26.7,13.4,-1.7,87,68,47,28.97,28.64,11,1,11,0.00
2012-1-20,23.7,11.5,1.2,14.0,-4.2,-12.7,78,49,29,29.12,28.91,7,0,7,0.00
2012-1-21,28.2,22.0,11.1,23.0,13.5,5.3,86,71,46,29.14,28.79,8,0,8,0.00
2012-1-22,45.1,31.0,11.7,37.6,19.4,5.9,87,65,30,29.12,28.82,8,1,8,0.00
2012-1-23,56.5,46.1,35.4,49.4,38.4,21.0,85,75,55,28.82,28.47,17,3,17,0.00
2012-1-24,35.6,33.3,31.6,31.0,22.9,17.5,86,66,56,29.20,28.82,10,1,10,0.00
2012-1-25,34.3,32.2,30.2,30.9,20.0,17.0,87,61,51,29.23,29.03,5,0,5,0.00
2012-1-26,50.7,39.4,34.3,46.2,35.7,30.9,87,87,85,29.06,28.41,5,0,5,0.00
2012-1-27,52.2,39.6,35.6,47.5,35.8,31.8,87,86,84,28.91,28.38,6,0,6,0.00
2012-1-28,37.4,33.6,27.9,33.4,21.6,2.6,87,65,30,29.00,28.73,12,2,12,0.00
2012-1-29,38.8,31.0,25.5,26.3,10.5,4.4,79,43,29,29.09,28.82,9,3,10,0.00
2012-1-30,46.6,29.9,16.7,21.8,11.6,5.0,89,49,29,29.14,28.91,10,2,10,0.00
2012-1-31,62.6,52.6,46.0,43.3,20.3,12.5,73,29,18,28.97,28.85,10,3,10,0.00
2012-2-1,60.1,48.3,36.1,46.6,36.4,22.8,86,66,26,29.00,28.82,11,1,11,0.00
2012-2-2,40.5,36.9,28.9,36.3,29.3,20.3,88,74,54,29.29,28.94,7,0,7,2.36
2012-2-3,57.9,36.7,27.7,36.3,24.4,13.9,88,67,19,29.35,29.20,5,0,5,0.00
2012-2-4,40.8,36.9,32.4,37.0,33.0,28.9,88,86,79,29.23,29.00,4,0,4,0.04
2012-2-5,53.1,36.4,29.3,38.4,25.1,10.6,89,69,21,29.12,29.00,6,0,6,0.00
2012-2-6,52.7,39.3,32.7,33.6,24.2,14.8,88,60,23,29.09,28.94,9,1,9,0.00
2012-2-7,36.3,33.7,30.6,31.9,26.0,21.4,87,73,55,29.17,28.97,8,1,8,0.00
2012-2-8,32.9,29.2,23.0,29.5,20.8,10.6,87,71,46,29.17,29.09,6,0,7,0.04
2012-2-9,42.4,30.1,23.0,23.1,13.6,4.5,88,55,23,29.14,29.03,9,1,9,0.00
2012-2-10,32.4,30.2,28.0,27.7,16.1,7.9,88,58,38,29.03,28.76,8,1,8,0.00
2012-2-11,33.3,22.4,14.4,30.1,16.3,1.6,89,78,50,29.03,28.64,14,3,14,0.00
2012-2-12,25.5,20.6,16.3,14.0,7.7,3.5,76,58,42,29.03,28.94,8,1,8,0.00
2012-2-13,42.4,28.7,19.4,7.0,2.5,-2.0,49,34,22,29.06,28.88,8,1,8,0.04
2012-2-14,37.8,34.8,30.4,34.2,26.5,2.6,88,75,28,28.94,28.76,6,0,6,0.05
2012-2-15,45.3,37.4,32.7,33.2,25.7,16.6,87,65,33,29.14,28.94,8,0,8,0.00
2012-2-16,50.0,44.2,37.9,45.7,40.1,27.9,88,85,65,29.03,28.82,6,0,6,0.20
2012-2-17,48.0,36.6,31.1,35.5,24.1,12.0,88,64,24,29.03,28.97,6,0,6,0.00
2012-2-18,31.1,31.1,31.1,18.9,18.9,18.9,60,60,60,29.00,29.00,0,0,0,0.00
2012-2-19,42.1,33.8,28.4,18.9,10.9,5.7,60,39,26,29.06,28.94,11,1,11,0.00
2012-2-20,51.8,32.9,25.7,13.6,9.6,1.0,57,40,20,29.23,29.03,8,0,8,0.00
2012-2-21,45.0,38.7,30.9,40.3,24.8,6.2,90,61,29,29.06,28.61,10,2,10,0.08
2012-2-22,57.0,43.2,37.0,36.5,28.7,13.5,88,62,20,28.70,28.38,10,2,10,0.00
2012-2-23,46.0,40.7,36.0,40.3,31.1,14.0,88,73,29,28.58,28.41,5,0,5,0.63
2012-2-24,47.7,40.6,32.7,43.4,32.0,19.8,86,73,40,28.67,28.26,17,2,17,0.00
2012-2-25,32.7,30.2,27.9,25.8,19.9,13.9,80,66,50,29.17,28.64,10,2,10,0.00
2012-2-26,45.5,32.3,27.0,13.9,9.3,6.1,52,39,22,29.29,29.17,8,1,8,0.08
2012-3-1,39.9,38.4,33.8,30.0,23.6,20.6,78,55,51,28.85,28.61,12,1,12,0.08
2012-3-2,56.3,44.1,30.9,51.5,32.4,21.0,86,66,36,28.82,28.29,20,1,20,0.29
2012-3-3,45.9,35.8,31.1,32.1,16.9,12.2,60,46,38,28.70,28.38,14,3,14,0.08
2012-3-4,37.0,31.3,29.5,26.0,19.5,12.8,84,62,42,28.76,28.64,6,0,6,0.08
2012-3-5,32.2,25.6,15.4,25.3,14.4,6.2,83,64,40,29.29,28.76,8,0,8,0.08
2012-3-6,51.4,35.8,15.8,18.7,12.7,9.4,82,45,21,29.32,29.12,13,2,13,0.13
2012-3-7,68.4,55.5,46.4,25.7,15.3,8.0,26,20,17,29.20,29.03,13,4,13,0.08
2012-3-8,59.9,50.8,31.3,52.5,35.6,20.8,87,61,25,29.06,28.82,14,3,14,0.29
2012-3-9,44.6,33.9,27.5,24.0,12.5,1.5,72,43,23,29.32,29.03,13,2,13,0.08
2012-3-10,47.8,34.6,19.9,10.6,4.8,-0.3,58,30,20,29.44,29.23,10,2,10,0.08
2012-3-11,70.9,53.3,38.8,23.9,13.6,4.5,27,21,17,29.29,29.17,7,1,7,0.00
2012-3-12,59.7,52.1,38.7,53.9,39.6,15.1,84,66,23,29.17,28.85,13,1,13,0.41
2012-3-13,72.9,61.4,52.2,55.3,40.3,20.1,84,52,19,29.03,28.82,10,1,10,0.21
2012-3-14,78.4,57.4,37.4,38.9,28.2,15.8,88,40,15,29.12,29.03,7,0,7,0.08
2012-3-15,74.5,64.1,54.1,55.8,43.3,30.5,82,50,23,29.09,28.97,13,2,13,0.16
2012-3-16,78.3,63.8,55.9,56.9,51.5,39.3,84,68,25,29.12,28.97,5,0,5,0.13
2012-3-17,83.5,64.2,50.4,61.2,39.8,20.9,85,51,14,29.20,29.06,9,0,9,0.08
2012-3-18,77.9,65.0,58.3,59.5,49.2,34.8,83,61,23,29.14,29.03,8,1,8,0.83
2012-3-19,85.1,65.9,53.1,62.7,47.4,30.4,85,59,16,29.12,29.03,5,0,5,0.08
2012-3-20,90.0,70.2,59.0,56.2,44.5,28.1,81,48,12,29.17,29.06,5,0,5,0.08
2012-3-21,91.8,69.6,56.3,57.0,42.5,26.1,83,48,12,29.20,29.09,7,0,7,0.08
2012-3-22,93.7,70.7,55.6,57.6,40.0,25.0,83,41,11,29.12,29.06,8,0,8,0.08
2012-3-23,90.7,68.5,54.9,58.6,41.7,25.9,82,48,12,29.09,28.85,7,0,7,0.21
2012-3-24,68.5,63.5,55.4,60.9,53.1,39.3,83,71,36,28.85,28.76,6,0,6,0.12
2012-3-25,57.9,54.8,50.2,52.1,49.0,45.2,84,81,67,28.91,28.79,10,0,10,0.00
2012-3-26,53.4,39.6,32.0,48.7,17.4,3.8,85,44,22,29.23,28.91,16,2,16,0.00
2012-3-27,58.8,42.0,25.5,21.2,13.0,3.0,74,34,19,29.26,28.88,9,1,9,0.00
2012-3-28,71.1,59.2,52.3,38.5,23.0,13.5,38,25,19,28.88,28.70,10,1,10,0.00
2012-3-29,44.2,41.0,37.4,21.7,19.7,17.7,49,42,36,29.03,28.88,10,1,10,0.00
2012-3-30,59.2,44.8,31.8,42.0,26.9,17.9,84,52,25,29.00,28.61,8,1,8,0.00
2012-3-31,45.7,41.7,38.8,41.0,34.9,26.7,86,77,60,28.88,28.67,8,0,8,0.00
2012-4-1,65.5,47.1,38.5,43.7,33.7,27.3,85,63,26,28.85,28.61,12,1,12,0.04
2012-4-2,64.0,47.1,36.3,38.8,27.6,10.1,86,54,18,28.94,28.73,9,0,9,0.00
2012-4-3,62.6,48.2,32.5,35.2,22.8,12.4,79,39,20,28.97,28.76,8,0,8,0.04
2012-4-4,62.6,50.3,37.0,36.2,21.6,8.1,57,35,19,28.85,28.76,12,1,12,0.00
2012-4-5,56.1,41.6,33.3,35.4,21.6,8.9,87,50,20,28.94,28.79,12,1,12,0.00
2012-4-6,59.7,44.0,34.3,37.4,21.0,7.1,87,48,19,29.12,28.94,13,1,13,0.00
2012-4-7,67.3,44.7,27.3,37.1,19.5,8.1,89,45,17,29.20,29.06,10,0,10,0.00
2012-4-8,64.0,50.2,36.1,36.3,19.9,9.2,66,33,18,29.06,28.91,10,1,10,0.00
2012-4-9,67.1,50.6,38.8,31.8,19.5,9.2,73,32,17,28.91,28.70,12,1,12,0.00
2012-4-10,40.5,38.0,35.6,33.0,22.4,14.3,85,55,34,28.85,28.70,6,0,6,0.04
2012-4-11,46.6,39.3,34.5,36.6,27.9,21.4,85,66,38,29.06,28.82,13,1,13,0.13
2012-4-12,62.4,45.0,32.7,45.2,22.8,10.6,88,51,19,29.12,29.03,7,0,7,0.00
2012-4-13,70.7,48.0,31.6,40.2,22.7,13.8,87,45,17,29.17,29.06,8,0,8,0.00
2012-4-14,64.8,51.1,38.1,59.5,39.2,19.7,84,66,25,29.09,28.88,8,1,8,0.04
2012-4-15,81.3,70.4,61.3,61.2,46.8,30.4,83,51,17,28.91,28.82,13,2,13,0.00
2012-4-16,79.0,69.3,52.3,48.9,36.3,24.4,44,31,15,29.09,28.76,16,3,16,0.00
2012-4-17,63.3,51.0,39.7,43.0,27.0,15.8,87,43,19,29.26,29.09,7,0,8,0.00
2012-4-18,70.7,51.4,37.2,34.0,24.0,15.3,74,40,17,29.17,28.97,7,0,7,0.00
2012-4-19,76.6,59.9,45.5,42.7,31.1,23.1,68,37,15,28.97,28.85,7,0,7,0.00
2012-4-20,79.9,64.6,51.4,48.5,33.0,24.4,80,36,15,28.85,28.67,10,2,10,0.00
2012-4-21,51.4,44.7,41.5,45.5,39.9,34.5,87,83,76,28.85,28.73,9,1,9,0.25
2012-4-22,48.9,43.1,40.6,38.1,31.8,25.1,85,65,45,28.85,28.70,12,1,12,0.00
2012-4-23,52.7,43.9,38.1,31.8,20.7,7.0,67,42,19,28.70,28.47,23,4,23,0.00
2012-4-24,60.6,47.5,34.0,19.1,15.2,11.2,52,29,19,28.61,28.41,11,1,11,0.00
2012-4-25,71.8,54.1,34.5,39.8,22.9,15.4,86,35,17,28.79,28.61,7,0,7,0.00
2012-4-26,61.3,52.2,43.0,55.8,43.9,33.6,88,75,50,28.88,28.55,9,0,9,0.04
2012-4-27,55.2,43.3,33.3,39.1,18.8,8.9,86,41,20,29.14,28.88,13,2,13,0.00
2012-4-28,46.8,40.6,33.3,36.5,23.8,11.8,76,53,28,29.12,29.03,4,0,4,0.04
2012-4-29,71.1,48.8,31.5,38.2,22.0,7.7,87,45,17,29.20,29.09,9,0,9,0.00
2012-4-30,80.4,60.7,41.5,61.2,29.4,8.1,82,34,20,29.14,28.82,8,1,8,0.54
2012-5-1,71.2,67.1,60.6,65.8,58.4,45.7,83,75,45,29.03,28.85,4,0,4,0.04
2012-5-2,86.9,74.8,63.1,67.2,54.8,38.2,83,56,20,29.00,28.88,9,1,9,0.00
2012-5-3,91.8,78.6,67.6,68.8,51.4,34.5,82,46,14,29.06,28.94,9,1,9,0.00
2012-5-4,84.6,72.0,64.2,68.1,54.9,38.8,82,59,21,29.00,28.91,9,0,9,0.00
2012-5-5,82.9,68.7,54.5,63.9,48.6,33.2,83,54,19,29.03,28.88,9,1,9,0.00
2012-5-6,83.3,61.4,47.1,51.2,32.4,15.8,85,42,14,29.03,28.91,8,1,8,0.00
2012-5-7,83.8,65.2,52.5,66.9,46.0,24.8,83,53,23,28.94,28.73,7,0,7,0.38
2012-5-8,76.1,70.5,60.0,70.2,64.7,56.0,98,82,73,29.92,28.73,10,0,18,3.29
2012-5-9,68.9,60.4,51.8,60.8,43.3,26.0,84,59,22,28.79,28.67,6,0,11,0.00
2012-5-10,66.8,54.6,45.9,50.9,33.3,16.4,86,53,17,28.91,28.70,4,0,10,0.00
2012-5-11,77.7,58.3,46.0,46.3,32.1,-99.9,87,47,15,29.15,28.88,4,0,8,0.00
2012-5-12,78.7,66.9,52.4,58.0,33.4,22.6,98,36,15,29.92,29.09,10,0,18,0.00
2012-5-13,77.4,63.2,54.3,54.2,42.9,24.6,84,55,15,29.15,29.06,3,0,6,0.00
2012-5-14,78.1,63.7,51.4,62.4,42.1,19.8,84,53,17,29.06,28.94,5,0,8,0.00
2012-5-15,85.3,65.6,50.1,61.5,39.8,22.3,86,50,13,29.00,28.85,4,0,6,0.00
2012-5-16,68.3,58.1,42.3,53.8,35.3,17.3,79,46,19,29.03,28.82,5,1,10,0.00
2012-5-17,70.9,53.9,41.5,52.8,29.6,14.0,88,49,17,29.18,29.03,5,0,9,0.00
2012-5-18,85.1,60.9,40.6,51.3,32.8,20.4,87,45,13,29.12,29.00,3,0,5,0.00
2012-5-19,89.8,68.0,51.6,54.2,38.6,-99.9,84,46,12,29.18,29.03,3,0,6,0.00
2012-5-20,94.5,71.7,56.3,64.5,43.3,26.9,83,48,11,29.18,29.00,1,0,4,0.00
2012-5-21,90.8,70.4,59.4,56.2,45.9,-99.9,82,48,13,29.00,28.88,4,0,9,0.00
2012-5-22,64.4,59.5,57.0,55.8,52.9,47.5,84,79,57,28.94,28.85,4,1,7,0.00
2012-5-23,85.8,66.1,55.8,61.0,46.1,-99.9,86,57,16,28.94,28.85,4,0,8,0.00
2012-5-24,87.1,72.8,61.4,67.2,50.4,36.4,83,53,18,29.00,28.85,4,0,7,0.00
2012-5-25,90.9,76.9,66.7,67.6,53.0,40.9,80,49,18,29.03,28.91,3,1,8,0.00
2012-5-26,71.8,69.4,60.0,58.0,51.8,46.5,98,55,41,29.92,29.12,10,0,18,3.29
2012-5-27,90.8,74.3,64.0,61.7,51.0,41.7,72,46,19,29.12,28.97,5,0,11,0.00
2012-5-28,94.6,81.3,70.1,72.7,57.2,39.5,82,51,14,29.00,28.79,4,0,7,0.00
2012-5-29,84.8,75.6,64.1,65.0,53.9,31.2,82,52,17,28.82,28.73,4,1,8,0.00
2012-5-30,79.4,67.8,56.7,59.5,41.4,23.3,83,47,15,28.85,28.76,5,1,10,0.00
2012-5-31,73.9,63.4,56.7,56.2,44.1,31.5,83,54,22,28.94,28.79,5,0,9,0.00
2012-6-1,73.8,63.6,54.4,68.0,57.6,41.4,84,81,54,28.79,28.50,4,0,10,0.70
2012-6-2,73.0,60.4,49.8,47.8,35.0,20.9,80,45,16,28.76,28.64,4,2,10,0.00
2012-6-3,79.9,67.2,58.1,46.0,34.6,23.1,58,34,15,28.76,28.67,5,1,10,0.05
2012-6-4,72.0,61.8,54.5,54.2,43.1,27.9,84,55,21,28.82,28.70,5,1,10,0.00
2012-6-5,64.8,59.3,52.9,53.4,44.4,31.6,83,60,29,28.94,28.82,4,0,7,0.00
2012-6-6,78.0,62.9,52.2,55.0,40.0,24.3,86,52,15,29.03,28.91,5,0,8,0.00
2012-6-7,82.5,66.6,55.6,58.0,40.2,24.8,84,48,14,29.06,28.97,5,1,8,0.00
2012-6-8,87.0,68.7,55.4,57.8,41.7,25.4,84,49,13,29.06,28.94,4,0,8,0.04
2012-6-9,91.2,74.8,57.9,52.7,34.4,27.1,82,28,12,29.03,28.91,4,0,8,0.00
2012-6-10,93.5,75.5,59.5,62.3,43.6,30.5,83,41,11,29.09,28.97,2,0,5,0.17
2012-6-11,79.9,71.9,65.1,67.5,59.2,48.3,83,67,33,29.06,28.91,2,0,7,0.00
2012-6-12,88.1,76.9,65.0,69.8,53.7,24.5,83,53,14,28.97,28.85,4,1,10,0.00
2012-6-13,76.6,62.4,52.9,43.8,34.0,20.4,67,38,15,29.15,28.97,5,1,10,0.00
2012-6-14,87.0,67.6,53.1,52.1,40.6,26.4,83,47,13,29.15,29.03,2,0,9,0.00
2012-6-15,90.1,73.2,59.4,58.0,44.8,28.5,83,45,12,29.21,29.06,2,0,6,0.00
2012-6-16,89.7,74.0,61.7,57.8,47.5,33.1,83,46,15,29.21,29.06,2,0,5,0.00
2012-6-17,81.4,71.8,67.1,69.5,62.0,52.0,83,72,49,29.06,28.85,5,0,8,0.49
2012-6-18,89.5,75.2,69.4,73.1,64.0,41.0,83,72,19,28.97,28.82,4,0,9,2.16
2012-6-19,92.8,80.1,69.8,64.9,52.7,35.9,80,46,14,29.09,28.94,5,1,10,0.00
2012-6-20,94.5,80.6,69.0,66.5,51.4,35.6,81,43,14,29.18,28.97,4,0,8,0.00
2012-6-21,94.4,81.6,71.6,64.5,47.6,30.4,75,36,12,29.00,28.85,5,1,9,0.00
2012-6-22,85.9,74.2,62.8,66.3,50.3,27.6,83,52,13,29.00,28.88,5,1,8,0.00
2012-6-23,84.8,69.8,60.3,63.6,46.1,27.2,84,52,14,29.06,28.94,4,0,8,0.05
2012-6-24,91.0,71.3,58.9,61.9,48.2,28.6,83,53,12,29.06,28.85,2,0,5,0.00
2012-6-25,75.1,67.4,59.2,62.1,44.2,26.2,81,48,18,28.97,28.85,6,1,14,0.00
2012-6-26,80.1,65.5,53.2,55.8,39.1,24.8,86,47,15,29.03,28.91,5,1,10,0.00
2012-6-27,88.7,71.1,56.3,58.3,41.8,26.9,84,46,13,29.03,28.85,4,0,8,0.00
2012-6-28,98.4,81.3,66.4,70.2,45.1,33.4,68,32,13,28.91,28.73,3,0,7,0.00
2012-6-29,98.1,81.0,64.8,69.3,56.1,30.0,81,49,13,28.91,28.73,4,0,8,0.00
2012-6-30,93.0,76.9,63.1,65.9,50.9,34.6,83,51,14,28.91,28.79,4,0,7,0.00
2012-7-1,95.7,79.2,66.1,67.2,53.0,34.4,82,49,14,29.00,28.85,5,0,9,0.00
2012-7-2,96.8,77.3,64.4,66.6,49.4,30.0,84,49,11,29.06,28.94,4,0,8,0.00
2012-7-3,84.7,73.9,66.6,71.6,61.2,52.3,83,66,41,29.03,28.85,4,0,10,0.58
2012-7-4,97.0,89.4,60.0,71.4,53.4,43.3,98,35,16,29.92,28.82,10,1,18,0.21
2012-7-5,88.3,77.9,71.8,73.2,67.5,52.3,84,73,31,29.00,28.88,5,0,12,0.87
2012-7-6,99.3,83.1,73.8,74.7,61.8,42.1,84,57,16,29.03,28.91,4,0,8,0.00
2012-7-7,100.0,85.2,73.8,70.9,59.8,38.4,82,50,13,28.97,28.85,4,1,8,0.00
2012-7-8,88.5,77.0,70.1,67.4,54.2,34.5,80,51,15,29.00,28.91,5,1,9,0.00
2012-7-9,89.0,73.3,61.7,63.1,46.6,32.1,84,46,13,29.09,28.97,5,0,7,0.00
2012-7-10,87.2,72.9,63.6,63.3,46.2,24.5,83,48,13,29.09,28.97,5,0,9,0.00
2012-7-11,89.1,70.7,60.2,61.6,46.4,30.4,83,50,13,29.18,29.06,5,0,9,0.00
2012-7-12,92.5,74.9,60.4,65.2,48.9,35.6,79,45,14,29.15,29.03,3,0,6,0.00
2012-7-13,89.9,76.7,67.4,64.8,43.9,32.2,82,36,13,29.21,29.09,4,0,6,0.00
2012-7-14,83.0,73.1,63.8,67.6,60.6,52.0,82,67,41,29.12,29.03,4,0,6,0.00
2012-7-15,89.7,79.5,73.6,69.8,62.8,46.3,81,61,23,29.09,28.97,4,0,8,0.00
2012-7-16,95.2,80.8,71.3,70.0,55.5,31.0,81,52,11,29.03,28.88,4,0,8,0.00
2012-7-17,101.1,85.2,70.8,64.2,50.2,-99.9,74,36,12,28.94,28.79,5,1,10,0.00
2012-7-18,93.6,82.5,72.3,71.7,59.6,44.1,80,50,19,28.97,28.82,5,1,8,0.00
2012-7-19,80.9,74.9,71.1,72.4,67.9,65.3,84,79,66,28.97,28.85,3,0,8,0.50
2012-7-20,74.0,70.6,66.0,66.9,63.3,58.4,82,78,65,29.00,28.85,4,0,8,0.00
2012-7-21,87.3,72.2,63.0,64.5,53.2,33.5,84,59,16,29.09,29.00,4,0,8,0.00
2012-7-22,92.2,78.2,67.5,63.9,52.2,35.9,82,49,14,29.18,29.03,4,0,6,0.00
2012-7-23,95.0,81.8,71.2,64.2,52.1,35.6,78,42,14,29.06,28.85,4,1,9,0.00
2012-7-24,86.2,78.8,62.4,71.4,54.7,35.4,77,45,23,28.94,28.82,5,1,10,0.00
2012-7-25,91.3,74.5,61.0,62.4,45.5,28.2,84,46,12,29.03,28.70,4,1,8,0.00
2012-7-26,78.8,78.6,78.4,63.4,57.6,53.4,60,49,42,28.70,28.70,3,2,6,0.00
2012-7-27,81.7,72.5,60.0,67.4,65.1,50.5,98,79,34,29.92,28.82,10,0,18,0.37
2012-7-28,77.8,71.8,68.2,68.8,63.6,53.1,84,76,44,29.06,28.85,4,0,10,0.46
2012-7-29,88.5,72.5,62.8,65.7,48.3,27.1,84,53,13,29.15,29.00,4,1,8,0.04
2012-7-30,89.5,72.5,61.3,61.6,51.9,33.8,83,55,15,29.09,28.97,3,0,6,0.00
2012-7-31,91.5,76.3,65.9,63.5,51.7,32.1,83,51,12,28.97,28.88,4,0,8,0.00
2012-8-1,89.3,74.4,63.9,66.0,50.9,31.8,83,53,15,28.97,28.88,5,1,10,0.00
2012-8-2,96.2,74.7,59.6,66.6,48.1,30.4,86,51,11,28.97,28.85,4,0,6,0.00
2012-8-3,97.3,79.3,65.5,64.3,51.3,35.6,82,48,13,29.00,28.88,3,0,6,0.00
2012-8-4,92.8,80.7,68.2,67.6,57.5,44.9,82,51,20,29.03,28.91,4,1,8,0.00
2012-8-5,84.0,76.7,71.2,71.3,62.7,45.1,83,65,28,29.03,28.91,4,1,8,0.21
2012-8-6,88.6,72.2,62.2,62.4,48.8,28.8,84,52,13,29.18,29.00,5,0,8,0.00
2012-8-7,92.3,71.3,56.3,61.4,44.9,28.5,84,52,12,29.09,28.91,5,0,8,0.00
2012-8-9,73.7,69.7,69.7,63.5,57.9,-99.9,80,71,57,29.92,28.73,10,0,18,3.29
2012-8-10,74.5,68.3,61.5,68.0,58.4,45.7,84,72,42,28.76,28.67,4,0,8,1.00
2012-8-11,66.7,63.4,60.4,59.9,57.6,50.5,84,81,67,28.91,28.70,4,0,9,0.12
2012-8-12,82.2,68.9,62.4,60.6,51.2,30.4,83,60,17,29.00,28.88,4,0,8,0.00
2012-8-13,81.8,68.7,60.6,61.2,52.2,34.6,84,62,20,29.09,28.94,3,0,5,0.00
2012-8-14,72.2,67.7,65.1,66.3,61.7,59.0,84,81,75,28.94,28.85,4,0,7,0.33
2012-8-15,85.0,69.5,58.8,63.4,51.0,28.5,86,60,13,28.97,28.85,4,0,8,0.00
2012-8-16,87.5,72.8,60.8,65.1,49.2,33.2,84,52,16,29.03,28.82,4,1,8,0.00
2012-8-17,81.0,70.5,59.0,61.8,47.5,29.0,81,49,17,28.91,28.82,5,1,9,0.29
2012-8-18,82.3,65.3,56.8,59.5,45.4,30.4,84,56,16,29.03,28.91,5,0,7,0.00
2012-8-19,79.5,64.7,55.8,56.5,48.7,33.8,83,61,20,28.91,28.85,4,0,8,0.00
2012-8-20,78.0,65.6,57.7,60.7,50.0,32.3,84,62,20,28.94,28.82,5,0,11,0.00
2012-8-21,76.5,64.5,57.0,61.2,51.8,36.5,86,67,24,29.06,28.94,3,0,5,0.00
2012-8-22,87.7,66.9,55.6,61.7,45.2,27.2,86,56,13,29.18,29.00,4,0,6,0.00
2012-8-23,90.9,69.9,56.3,63.3,44.6,28.4,86,51,12,29.15,29.06,4,0,6,0.00
2012-8-24,94.3,73.3,59.4,63.1,45.8,29.2,85,48,11,29.15,29.03,3,0,6,0.00
2012-8-25,95.0,75.6,62.2,61.8,48.0,30.3,83,48,11,29.18,29.06,4,0,6,0.00
2012-8-26,93.2,75.9,63.0,61.1,44.4,30.0,79,38,11,29.21,29.00,3,0,6,0.00
2012-8-27,73.9,70.2,66.7,68.6,64.4,59.7,84,82,73,29.03,28.91,0,0,5,1.29
2012-8-28,82.4,71.1,61.9,66.3,56.2,33.3,84,65,20,29.09,28.97,5,1,10,0.00
2012-8-29,81.9,65.8,56.4,60.8,48.0,30.7,86,60,17,29.06,28.97,5,1,8,0.00
2012-8-30,90.3,66.6,51.6,59.6,42.9,27.2,87,54,12,29.09,28.97,3,0,5,0.00
2012-8-31,96.5,79.9,67.8,58.8,41.5,32.9,50,28,14,29.12,29.00,5,1,10,0.00
2012-9-1,87.1,77.3,71.1,70.5,63.3,55.7,84,64,38,29.12,29.00,4,0,6,0.25
2012-9-2,79.2,73.7,70.7,71.3,66.9,65.2,84,80,63,29.03,28.94,0,0,3,0.08
2012-9-3,91.0,75.2,70.0,70.9,66.3,53.1,86,76,28,29.00,28.88,4,0,5,0.25
2012-9-4,75.4,72.3,69.6,70.4,67.5,64.9,86,85,84,28.91,28.82,1,0,4,1.33
2012-9-5,87.1,72.0,63.0,69.0,60.9,43.2,87,73,22,28.94,28.82,2,0,5,0.00
2012-9-6,88.7,74.0,67.6,67.9,61.6,40.8,88,71,19,28.97,28.82,4,0,8,0.84
2012-9-7,82.6,69.5,64.9,69.6,63.3,54.3,88,82,39,28.97,28.67,2,0,6,0.70
2012-9-8,69.5,65.2,57.6,64.6,53.8,33.4,89,71,27,28.82,28.56,4,0,9,1.75
2012-9-9,73.8,61.4,56.3,56.3,47.3,26.2,87,66,19,29.00,28.79,4,0,8,0.03
2012-9-10,74.6,59.6,52.0,58.6,43.5,25.9,91,64,18,29.21,29.00,5,0,10,0.00
2012-9-11,82.6,62.6,51.3,59.2,44.3,24.9,91,62,14,29.26,29.12,3,0,5,0.00
2012-9-12,86.5,67.2,55.8,61.2,47.4,29.2,89,60,13,29.29,29.15,3,0,6,0.00
2012-9-13,84.5,70.6,62.6,64.2,55.7,37.1,89,65,19,29.29,29.18,3,0,5,0.00
2012-9-14,70.8,65.2,59.0,66.2,60.2,55.7,98,84,73,29.92,29.12,10,1,18,0.05
2012-9-15,74.6,62.5,54.2,65.9,47.1,23.5,89,65,16,29.26,29.12,5,0,9,0.04
2012-9-16,80.9,63.4,55.9,58.2,45.0,24.6,89,61,14,29.15,29.00,3,0,6,0.00
2012-9-17,79.2,64.7,57.4,56.8,49.2,30.1,88,63,17,29.92,28.76,10,0,18,3.29
2012-9-18,77.9,67.3,50.7,74.0,59.2,35.4,88,76,50,28.88,28.56,4,1,10,0.46
2012-9-19,68.0,55.0,48.2,50.8,35.4,17.9,86,56,17,29.09,28.88,3,0,6,0.00
2012-9-20,74.3,59.8,47.5,44.6,35.5,26.9,83,45,18,29.00,28.85,5,1,8,0.00
2012-9-21,74.6,64.0,57.2,61.7,43.2,21.6,86,53,16,28.91,28.73,4,0,8,0.62
2012-9-22,70.9,65.0,54.4,67.1,56.9,26.6,89,78,22,29.00,28.67,4,0,8,0.75
2012-9-23,64.2,56.8,48.7,60.5,47.9,27.8,88,75,31,29.09,28.97,4,0,8,0.00
2012-9-24,64.5,55.7,48.2,52.0,34.4,17.0,87,53,18,29.18,28.94,4,0,8,0.00
2012-9-25,68.9,57.9,48.4,58.7,37.4,26.2,83,49,24,29.03,28.88,4,1,8,0.04
2012-9-26,80.1,74.8,64.2,76.1,70.3,58.5,88,86,81,29.03,28.85,3,0,6,1.08
2012-9-27,79.2,67.3,58.6,75.2,62.6,52.1,88,85,79,29.09,29.03,0,0,4,0.04
2012-9-28,68.8,59.7,50.2,64.0,46.1,25.0,88,66,22,29.92,28.97,10,0,18,0.00
2012-9-29,72.6,58.7,53.1,60.2,45.1,25.9,88,67,19,29.00,28.85,4,0,8,0.00
2012-9-30,69.7,58.6,51.6,57.2,46.9,25.4,86,69,21,28.85,28.76,4,0,10,0.00
2012-10-1,70.8,58.6,53.4,65.6,47.0,28.9,88,69,22,28.88,28.73,2,0,4,0.00
2012-10-2,79.5,70.7,56.8,75.1,64.9,-99.9,87,83,78,28.82,28.70,0,0,0,0.41
2012-10-3,79.5,70.7,60.1,75.2,58.4,34.2,87,68,24,29.06,28.82,5,1,9,0.04
2012-10-4,74.0,64.6,59.0,57.1,46.7,31.8,83,58,22,29.12,29.03,4,0,8,0.00
2012-10-5,67.3,63.2,57.7,62.6,53.2,-99.9,87,72,51,29.03,28.88,3,0,6,0.50
2012-10-6,60.1,52.4,44.2,53.6,36.7,19.2,88,61,22,29.00,28.82,4,0,8,0.33
2012-10-7,48.2,45.0,43.0,43.6,37.1,21.9,86,75,41,29.06,28.94,3,0,8,0.04
2012-10-8,55.0,45.8,40.6,46.3,32.5,17.6,88,66,26,29.15,29.03,1,0,7,0.00
2012-10-9,63.9,50.3,42.7,49.9,33.1,16.9,88,59,18,29.09,28.85,4,0,8,0.00
2012-10-10,51.9,48.2,43.3,47.4,31.4,-99.9,86,56,28,29.06,28.73,5,1,10,0.00
2012-10-11,63.1,46.9,34.3,32.1,20.3,13.6,88,39,18,29.15,29.00,4,1,10,0.00
2012-10-12,60.2,47.1,36.7,35.3,22.7,13.7,89,42,19,29.29,29.00,5,1,10,0.00
2012-10-13,65.5,50.1,35.8,54.6,30.9,21.0,89,53,20,29.26,28.88,4,1,8,0.17
2012-10-14,76.1,66.7,59.9,62.8,54.5,42.4,84,67,31,28.91,28.56,7,2,11,0.12
2012-10-15,66.7,53.7,48.9,54.3,42.9,36.0,86,67,53,28.82,28.56,6,1,10,0.04
2012-10-16,65.2,51.1,45.6,41.6,30.8,-99.9,86,50,18,28.91,28.76,3,0,5,0.00
2012-10-17,71.6,64.9,60.0,58.0,34.3,25.7,98,34,17,29.92,28.61,10,0,18,0.00
2012-10-18,63.4,57.6,51.0,52.1,39.6,28.6,86,56,27,29.92,28.50,10,1,18,0.04
2012-10-19,64.7,53.6,49.2,49.9,38.6,16.5,88,65,18,28.67,28.53,4,1,8,0.13
2012-10-20,54.5,51.8,47.8,50.6,44.0,36.6,87,75,55,28.85,28.59,4,0,8,0.00
2012-10-21,68.1,51.8,44.8,44.7,36.4,19.1,88,63,17,29.03,28.85,4,0,7,0.00
2012-10-22,80.7,59.9,46.4,46.5,41.0,29.8,87,57,17,29.06,28.97,3,0,6,0.00
2012-10-23,68.9,65.5,61.7,63.7,52.5,42.6,86,64,43,28.97,28.94,4,0,7,0.08
2012-10-24,83.5,68.1,58.3,64.7,48.2,-99.9,87,57,16,29.03,28.97,4,0,7,0.04
2012-10-25,85.4,67.8,57.4,56.1,40.0,23.7,84,47,13,29.03,28.91,5,1,10,0.00
2012-10-26,70.1,59.0,55.5,53.8,46.8,29.3,87,69,22,29.06,28.91,4,0,8,0.29
2012-10-27,57.0,55.0,49.5,53.1,51.2,44.6,88,87,83,29.03,28.91,4,0,10,0.58
2012-10-28,51.9,50.2,47.3,48.0,46.0,42.5,88,86,83,29.00,28.85,5,1,13,1.08
2012-10-29,60.0,46.4,40.1,55.5,40.8,-99.9,100,86,87,29.92,28.35,10,-8,22,1.53
2012-10-30,48.2,45.0,39.2,44.6,41.4,35.6,88,88,87,28.35,28.14,9,3,23,1.36
2012-10-31,46.4,41.9,40.5,42.9,38.2,-99.9,88,88,88,28.56,28.32,2,0,8,0.71
2012-11-1,43.0,40.0,33.3,39.3,36.5,29.5,88,87,86,28.67,28.56,1,0,5,0.17
2012-11-2,36.1,30.6,28.9,32.2,24.3,17.6,86,75,57,28.91,28.64,2,0,8,0.00
2012-11-3,37.4,30.9,28.0,33.5,24.7,17.0,87,76,55,29.03,28.91,1,0,5,0.08
2012-11-4,36.1,30.5,28.2,32.5,22.8,16.1,87,71,50,29.06,28.97,0,0,4,0.04
2012-11-5,31.5,28.5,24.8,27.6,18.2,-99.9,88,63,48,29.09,28.97,2,0,6,0.00
2012-11-6,45.6,27.6,20.5,24.7,13.8,2.6,89,60,20,29.03,28.85,1,0,4,0.00
2012-11-7,50.8,28.3,20.6,23.9,13.8,3.1,89,59,19,28.97,28.79,2,0,7,0.00
2012-11-8,39.6,29.5,23.0,26.9,19.6,10.9,90,69,30,29.09,28.97,3,0,8,0.00
2012-11-9,48.2,35.9,26.6,36.3,22.6,13.9,89,63,26,29.15,29.03,3,0,7,0.00
2012-11-10,59.2,47.3,38.4,42.5,30.0,18.0,86,56,20,29.12,29.03,2,0,6,0.12
2012-11-11,60.6,50.9,43.1,20.5,13.9,10.5,36,23,17,29.21,28.97,5,0,11,0.00
2012-11-12,55.0,45.0,23.5,47.3,27.5,11.1,88,59,18,29.18,28.88,7,2,13,0.58
2012-11-13,28.2,25.4,22.3,19.1,13.9,11.7,73,58,46,29.38,29.18,3,0,8,0.00
2012-11-14,35.7,26.2,20.9,20.9,14.6,6.2,90,60,30,29.44,29.26,2,0,5,0.00
2012-11-15,49.9,29.1,20.8,30.0,16.6,2.9,90,66,19,29.29,29.18,3,0,8,0.00
2012-11-16,50.9,32.8,26.1,39.8,22.0,7.1,89,70,19,29.38,29.21,4,0,7,0.00
2012-11-17,55.8,34.5,26.2,40.0,19.7,2.8,89,63,18,29.50,29.35,1,0,4,0.00
2012-11-18,54.9,33.2,23.7,27.4,16.8,4.5,89,57,18,29.41,29.29,2,0,5,0.00
2012-11-19,54.7,33.3,23.2,31.8,18.3,6.0,91,61,18,29.29,29.09,1,0,4,0.00
2012-11-20,52.2,36.4,27.4,30.4,20.4,6.2,90,59,19,29.09,29.00,0,0,2,0.00
2012-11-21,60.9,38.0,27.9,40.6,22.2,7.9,90,62,17,29.18,29.03,0,0,4,0.00
2012-11-22,56.9,41.5,29.8,42.2,22.3,12.9,89,54,20,29.12,28.85,4,0,9,0.00
2012-11-23,46.2,35.3,22.1,41.8,19.1,-99.9,84,53,28,28.88,28.73,4,1,12,0.00
2012-11-24,27.5,24.6,21.6,17.7,11.4,7.5,69,53,41,29.00,28.85,1,0,8,0.09
2012-11-25,39.8,27.2,22.5,23.8,11.9,-99.9,91,53,25,28.94,28.76,3,0,7,0.04
2012-11-26,46.4,31.7,24.5,32.3,19.4,6.7,91,64,21,29.12,28.85,0,0,4,0.00
2012-11-27,30.7,27.0,20.2,27.4,17.5,9.2,92,66,40,29.18,29.09,1,0,5,0.00
2012-11-28,36.9,27.0,20.9,21.5,15.2,7.5,91,61,30,29.21,29.09,1,0,6,0.00
2012-11-29,47.6,29.7,19.8,21.5,12.9,1.0,91,54,21,29.23,29.09,4,0,8,0.00
2012-11-30,50.5,34.5,22.5,23.2,16.2,9.5,78,49,20,29.12,29.03,0,0,4,0.00
2012-12-1,53.7,41.7,28.8,43.2,28.8,-99.9,91,64,33,29.18,29.03,3,0,7,0.00
2012-12-2,59.8,54.6,47.5,55.4,46.4,28.8,86,75,44,29.03,28.88,4,0,9,0.29
2012-12-3,64.1,60.2,55.3,59.3,55.4,48.6,86,84,78,29.09,28.97,2,0,6,0.04
2012-12-4,56.9,51.9,44.4,51.2,43.7,38.9,86,74,52,29.03,28.88,4,0,8,0.55
2012-12-5,44.3,33.9,23.8,40.5,22.4,4.4,88,63,29,29.23,29.00,4,0,10,0.04
2012-12-6,41.9,30.3,23.7,26.3,18.6,7.9,88,64,27,29.21,28.88,0,0,4,0.00
2012-12-7,50.8,46.6,31.9,46.6,40.9,16.7,87,81,48,28.88,28.79,0,0,0,0.13
2012-12-8,54.0,49.3,41.9,49.9,45.3,38.3,87,87,84,29.03,28.70,1,0,8,0.08
2012-12-9,58.9,41.6,31.9,54.5,36.7,26.9,87,83,69,29.03,28.61,2,0,8,0.16
2012-12-10,59.6,47.0,36.7,55.2,43.1,33.1,88,86,86,28.73,28.56,1,0,5,0.17
2012-12-11,36.7,31.3,24.0,33.1,24.1,13.4,88,74,51,29.09,28.73,0,0,4,0.00
2012-12-12,43.8,26.9,21.4,19.6,13.1,-99.9,90,59,21,29.29,29.09,0,0,4,0.00
2012-12-13,45.7,28.0,18.6,29.8,14.1,2.5,91,61,19,29.32,29.09,0,0,5,0.00
2012-12-14,53.2,34.1,26.8,23.3,12.2,6.0,83,41,19,29.18,29.06,0,0,4,0.00
2012-12-15,42.3,34.8,26.8,26.1,20.4,10.0,87,59,27,29.06,28.73,0,0,4,0.00
2012-12-16,54.4,48.6,42.0,44.9,32.9,21.2,83,55,41,28.73,28.59,2,0,7,0.00
2012-12-17,45.4,41.5,38.2,40.6,35.8,31.3,87,80,68,28.70,28.50,0,0,3,0.00
2012-12-18,46.2,38.6,30.6,42.4,31.9,18.9,87,77,53,28.73,28.47,1,0,8,0.42
2012-12-19,45.4,38.6,31.3,41.6,35.0,28.8,89,87,83,29.03,28.64,0,0,0,0.04
2012-12-20,50.3,39.7,32.4,46.0,33.2,18.5,89,78,48,29.00,28.26,4,0,14,0.33
2012-12-21,33.5,29.3,25.7,30.6,24.4,-99.9,90,82,54,28.67,28.23,4,0,12,0.00
2012-12-22,26.6,25.0,18.3,17.9,13.7,10.7,74,58,48,28.97,28.64,5,0,15,0.00
2012-12-23,42.5,23.6,14.0,21.2,13.4,6.2,91,67,22,28.91,28.79,0,0,5,0.00
2012-12-24,34.2,27.9,20.5,31.0,21.8,12.8,91,78,42,28.88,28.67,0,0,4,0.04
2012-12-25,36.2,30.6,26.7,32.6,24.0,13.4,89,75,51,29.12,28.82,1,0,7,0.00
2012-12-26,32.2,26.6,23.4,29.1,19.9,11.2,90,74,52,29.09,28.56,1,0,7,0.00
2012-12-27,32.1,28.3,23.6,29.0,24.8,-99.9,89,86,78,29.03,28.59,2,0,7,0.00
2012-12-28,33.7,24.1,19.2,23.7,17.2,11.2,91,74,43,29.03,28.76,0,0,0,0.00
2012-12-29,30.4,27.2,22.0,28.0,23.4,13.9,90,84,67,28.88,28.61,0,0,4,0.00
2012-12-30,28.8,20.9,15.3,26.4,16.3,9.5,90,81,71,29.21,28.88,1,0,5,0.00
2012-12-31,33.8,25.9,15.5,30.6,18.6,11.0,90,73,45,29.12,28.88,3,0,11,0.00
2013-1-1,32.2,22.6,14.9,29.3,15.6,3.9,89,72,57,28.97,28.85,3,0,8,0.00